Terminal Aerodrome Forecast
Issued by NWS Lake Charles, LA

Home | Current Version | Previous Version | Text Only | Print | Product List | Glossary On
Versions: 1 2 3 4 5 6 7 8 9 10 11 12 13
960
FTUS44 KLCH 191722
TAFAEX
TAF
KAEX 191722Z 1918/2018 35012G17KT P6SM SKC
     FM192200 36008KT P6SM SKC
     FM200100 VRB03KT P6SM SKC
     FM201500 09005KT P6SM SCT250=

USA.gov is the U.S. government's official web portal to all federal, state and local government web resources and services.